createdAt,value
2023-09-10T00:01:48.976Z,25.50
2023-09-10T00:04:15.532Z,25.50
2023-09-10T00:06:42.074Z,25.50
2023-09-10T00:09:08.581Z,25.40
2023-09-10T00:11:35.084Z,25.40
2023-09-10T00:14:01.604Z,25.50
2023-09-10T00:16:28.136Z,25.50
2023-09-10T00:21:35.460Z,25.50
2023-09-10T00:24:02.006Z,25.40
2023-09-10T00:26:28.518Z,25.40
2023-09-10T00:28:55.053Z,25.40
2023-09-10T00:31:25.236Z,25.40
2023-09-10T00:33:51.827Z,25.40
2023-09-10T00:36:18.378Z,25.40
2023-09-10T00:38:44.883Z,25.40
2023-09-10T00:41:11.398Z,25.40
2023-09-10T00:43:38.003Z,25.40
2023-09-10T00:46:04.628Z,25.40
2023-09-10T00:48:31.156Z,25.40
2023-09-10T00:50:57.767Z,25.30
2023-09-10T00:53:24.270Z,25.40
2023-09-10T00:55:50.827Z,25.40
2023-09-10T00:58:17.389Z,25.40
2023-09-10T01:00:43.924Z,25.30
2023-09-10T01:03:10.575Z,25.40
2023-09-10T01:05:37.158Z,25.30
2023-09-10T01:08:03.689Z,25.40
2023-09-10T01:10:30.227Z,25.40
2023-09-10T01:12:56.757Z,25.40
2023-09-10T01:15:23.275Z,25.30
2023-09-10T01:17:49.842Z,25.30
2023-09-10T01:20:16.482Z,25.40
2023-09-10T01:22:43.142Z,25.30
2023-09-10T01:27:50.081Z,25.40
2023-09-10T01:30:16.620Z,25.30
2023-09-10T01:32:43.246Z,25.40
2023-09-10T01:35:09.866Z,25.30
2023-09-10T01:37:36.525Z,25.30
2023-09-10T01:40:03.067Z,25.30
2023-09-10T01:42:29.654Z,25.30
2023-09-10T01:44:56.172Z,25.30
2023-09-10T01:47:22.761Z,25.30
2023-09-10T01:49:49.380Z,25.30
2023-09-10T01:52:15.919Z,25.30
2023-09-10T01:54:42.429Z,25.30
2023-09-10T01:57:08.977Z,25.40
2023-09-10T01:59:35.473Z,25.40
2023-09-10T02:02:02.107Z,25.30
2023-09-10T02:04:28.761Z,25.30
2023-09-10T02:06:55.331Z,25.30
2023-09-10T02:09:21.884Z,25.30
2023-09-10T02:11:48.404Z,25.40
2023-09-10T02:14:14.954Z,25.30
2023-09-10T02:16:43.680Z,25.30
2023-09-10T02:19:13.104Z,25.30
2023-09-10T02:21:39.589Z,25.30
2023-09-10T02:24:06.110Z,25.30
2023-09-10T02:26:37.308Z,25.40
2023-09-10T02:29:03.900Z,25.40
2023-09-10T02:31:30.472Z,25.40
2023-09-10T02:33:57.026Z,25.40
2023-09-10T02:36:23.549Z,25.40
2023-09-10T02:38:50.081Z,25.40
2023-09-10T02:41:16.647Z,25.40
2023-09-10T02:43:43.244Z,25.40
2023-09-10T02:46:09.869Z,25.30
2023-09-10T02:48:36.700Z,25.30
2023-09-10T02:51:06.437Z,25.30
2023-09-10T02:53:37.158Z,25.30
2023-09-10T02:56:03.849Z,25.30
2023-09-10T02:58:30.480Z,25.30
2023-09-10T03:00:57.069Z,25.30
2023-09-10T03:03:23.751Z,25.30
2023-09-10T03:05:50.398Z,25.30
2023-09-10T03:08:16.990Z,25.30
2023-09-10T03:10:43.501Z,25.30
2023-09-10T03:13:10.054Z,25.30
2023-09-10T03:15:36.601Z,25.30
2023-09-10T03:18:03.138Z,25.30
2023-09-10T03:20:29.687Z,25.30
2023-09-10T03:22:56.216Z,25.30
2023-09-10T03:25:22.800Z,25.30
2023-09-10T03:27:49.343Z,25.20
2023-09-10T03:30:15.880Z,25.20
2023-09-10T03:32:42.453Z,25.20
2023-09-10T03:35:13.211Z,25.30
2023-09-10T03:37:39.745Z,25.20
2023-09-10T03:40:07.239Z,25.30
2023-09-10T03:42:33.740Z,25.20
2023-09-10T03:45:00.413Z,25.20
2023-09-10T03:47:26.997Z,25.30
2023-09-10T03:49:53.580Z,25.20
2023-09-10T03:52:20.143Z,25.20
2023-09-10T03:54:46.669Z,25.20
2023-09-10T03:57:13.171Z,25.20
2023-09-10T03:59:39.719Z,25.20
2023-09-10T04:02:06.338Z,25.20
2023-09-10T04:04:37.269Z,25.20
2023-09-10T04:07:03.813Z,25.20
2023-09-10T04:09:30.359Z,25.20
2023-09-10T04:11:56.898Z,25.10
2023-09-10T04:14:23.421Z,25.10
2023-09-10T04:16:50.009Z,25.20
2023-09-10T04:19:16.583Z,25.20
2023-09-10T04:21:43.156Z,25.10
2023-09-10T04:24:09.690Z,25.20
2023-09-10T04:26:36.213Z,25.10
2023-09-10T04:29:02.781Z,25.10
2023-09-10T04:31:29.491Z,25.10
2023-09-10T04:33:56.097Z,25.10
2023-09-10T04:36:23.377Z,25.10
2023-09-10T04:38:55.254Z,25.10
2023-09-10T04:41:21.777Z,25.20
2023-09-10T04:43:48.328Z,25.20
2023-09-10T04:46:14.849Z,25.10
2023-09-10T04:48:43.254Z,25.10
2023-09-10T04:51:09.783Z,25.10
2023-09-10T04:53:36.295Z,25.10
2023-09-10T04:56:02.862Z,25.10
2023-09-10T04:58:30.286Z,25.10
2023-09-10T05:01:01.303Z,25.10
2023-09-10T05:03:30.209Z,25.10
2023-09-10T05:05:57.369Z,25.00
2023-09-10T05:08:23.943Z,25.10
2023-09-10T05:10:50.517Z,25.10
2023-09-10T05:13:17.053Z,25.10
2023-09-10T05:15:43.566Z,25.10
2023-09-10T05:18:10.074Z,25.10
2023-09-10T05:20:36.624Z,25.10
2023-09-10T05:23:03.202Z,25.10
2023-09-10T05:25:29.800Z,25.10
2023-09-10T05:27:56.331Z,25.00
2023-09-10T05:30:22.855Z,25.00
2023-09-10T05:32:49.486Z,25.10
2023-09-10T05:35:16.187Z,25.00
2023-09-10T05:37:42.830Z,25.00
2023-09-10T05:40:09.400Z,25.00
2023-09-10T05:42:35.904Z,25.00
2023-09-10T05:45:02.409Z,25.10
2023-09-10T05:47:31.982Z,25.10
2023-09-10T05:49:58.586Z,25.00
2023-09-10T05:52:28.172Z,25.00
2023-09-10T05:54:54.697Z,25.10
2023-09-10T05:57:21.208Z,25.10
2023-09-10T05:59:47.811Z,25.10
2023-09-10T06:02:14.326Z,25.10
2023-09-10T06:04:40.930Z,25.10
2023-09-10T06:07:07.494Z,25.10
2023-09-10T06:09:35.371Z,25.10
2023-09-10T06:14:42.208Z,25.10
2023-09-10T06:17:08.773Z,25.00
2023-09-10T06:19:35.330Z,25.10
2023-09-10T06:22:01.874Z,25.10
2023-09-10T06:24:28.404Z,25.10
2023-09-10T06:26:57.282Z,25.10
2023-09-10T06:29:24.381Z,25.10
2023-09-10T06:31:55.391Z,24.90
2023-09-10T06:34:22.003Z,25.10
2023-09-10T06:36:48.578Z,25.10
2023-09-10T06:39:15.145Z,25.10
2023-09-10T06:41:41.678Z,25.10
2023-09-10T06:44:08.258Z,25.10
2023-09-10T06:46:34.821Z,25.10
2023-09-10T06:49:07.336Z,25.10
2023-09-10T06:51:33.870Z,25.10
2023-09-10T06:54:01.302Z,25.10
2023-09-10T06:56:31.386Z,25.10
2023-09-10T06:59:01.628Z,25.10
2023-09-10T07:01:28.133Z,25.10
2023-09-10T07:04:01.959Z,25.10
2023-09-10T07:06:28.475Z,25.10
2023-09-10T07:08:54.960Z,25.10
2023-09-10T07:11:21.492Z,25.10
2023-09-10T07:13:48.073Z,25.10
2023-09-10T07:16:14.688Z,25.20
2023-09-10T07:18:41.626Z,25.10
2023-09-10T07:21:13.385Z,25.10
2023-09-10T07:23:39.893Z,25.10
2023-09-10T07:26:06.479Z,25.20
2023-09-10T07:31:23.464Z,25.20
2023-09-10T07:33:49.967Z,25.10
2023-09-10T07:36:16.446Z,25.20
2023-09-10T07:38:43.427Z,25.20
2023-09-10T07:41:10.029Z,25.20
2023-09-10T07:43:36.567Z,25.20
2023-09-10T07:46:03.107Z,25.20
2023-09-10T07:48:29.665Z,25.20
2023-09-10T07:50:56.195Z,25.30
2023-09-10T07:53:22.717Z,25.30
2023-09-10T07:55:49.304Z,25.20
2023-09-10T07:58:16.036Z,25.20
2023-09-10T08:00:42.624Z,25.30
2023-09-10T08:03:09.272Z,25.30
2023-09-10T08:05:35.851Z,25.30
2023-09-10T08:08:02.426Z,25.30
2023-09-10T08:10:28.971Z,25.30
2023-09-10T08:12:55.497Z,25.30
2023-09-10T08:15:22.044Z,25.30
2023-09-10T08:17:48.679Z,25.30
2023-09-10T08:20:15.320Z,25.40
2023-09-10T08:22:41.865Z,25.40
2023-09-10T08:25:08.378Z,25.40
2023-09-10T08:27:34.897Z,25.40
2023-09-10T08:30:01.404Z,25.40
2023-09-10T08:32:28.040Z,25.40
2023-09-10T08:34:54.668Z,25.40
2023-09-10T08:37:21.203Z,25.40
2023-09-10T08:39:47.729Z,25.50
2023-09-10T08:42:14.514Z,25.50
2023-09-10T08:44:41.045Z,25.50
2023-09-10T08:47:07.714Z,25.50
2023-09-10T08:49:34.231Z,25.50
2023-09-10T08:52:00.790Z,25.60
2023-09-10T08:54:27.481Z,25.60
2023-09-10T08:56:53.982Z,25.60
2023-09-10T08:59:20.546Z,25.60
2023-09-10T09:01:47.283Z,25.60
2023-09-10T09:04:13.858Z,25.60
2023-09-10T09:06:40.396Z,25.60
2023-09-10T09:09:07.050Z,25.60
2023-09-10T09:11:33.633Z,25.60
2023-09-10T09:14:00.206Z,25.70
2023-09-10T09:16:26.818Z,25.70
2023-09-10T09:18:53.358Z,25.80
2023-09-10T09:21:22.040Z,26.00
2023-09-10T09:23:49.435Z,26.00
2023-09-10T09:26:16.011Z,26.00
2023-09-10T09:28:42.582Z,26.00
2023-09-10T09:31:09.159Z,26.00
2023-09-10T09:33:35.728Z,26.00
2023-09-10T09:36:02.354Z,26.00
2023-09-10T09:38:28.883Z,26.00
2023-09-10T09:40:55.562Z,26.00
2023-09-10T09:43:22.107Z,26.00
2023-09-10T09:45:48.783Z,26.00
2023-09-10T09:48:15.399Z,26.00
2023-09-10T09:50:42.039Z,25.90
2023-09-10T09:53:08.692Z,25.90
2023-09-10T09:55:37.448Z,25.90
2023-09-10T09:58:04.029Z,25.90
2023-09-10T10:00:30.586Z,25.90
2023-09-10T10:02:57.223Z,26.00
2023-09-10T10:05:24.003Z,26.00
2023-09-10T10:07:52.852Z,26.00
2023-09-10T10:10:19.612Z,26.00
2023-09-10T10:12:46.137Z,26.00
2023-09-10T10:15:12.658Z,26.00
2023-09-10T10:17:39.340Z,26.00
2023-09-10T10:20:05.995Z,26.00
2023-09-10T10:22:32.532Z,26.10
2023-09-10T10:24:59.141Z,26.00
2023-09-10T10:27:25.675Z,26.10
2023-09-10T10:29:53.548Z,26.10
2023-09-10T10:32:20.160Z,26.10
2023-09-10T10:34:46.694Z,26.10
2023-09-10T10:37:13.216Z,26.10
2023-09-10T10:39:39.728Z,26.00
2023-09-10T10:42:06.326Z,26.10
2023-09-10T10:44:32.875Z,26.20
2023-09-10T10:46:59.710Z,26.20
2023-09-10T10:49:26.322Z,26.20
2023-09-10T10:51:56.543Z,26.20
2023-09-10T10:54:23.828Z,26.20
2023-09-10T10:56:50.343Z,26.20
2023-09-10T10:59:16.907Z,26.20
2023-09-10T11:01:43.599Z,26.30
2023-09-10T11:04:10.152Z,26.30
2023-09-10T11:06:36.668Z,26.30
2023-09-10T11:09:03.196Z,26.30
2023-09-10T11:11:29.745Z,26.30
2023-09-10T11:13:56.292Z,26.30
2023-09-10T11:16:22.964Z,26.30
2023-09-10T11:18:49.596Z,26.30
2023-09-10T11:21:16.116Z,26.30
2023-09-10T11:23:42.874Z,26.20
2023-09-10T11:26:13.668Z,26.30
2023-09-10T11:28:40.325Z,26.30
2023-09-10T11:31:06.901Z,26.30
2023-09-10T11:33:33.485Z,26.30
2023-09-10T11:36:02.225Z,26.30
2023-09-10T11:38:28.788Z,26.30
2023-09-10T11:40:55.323Z,26.30
2023-09-10T11:43:21.847Z,26.30
2023-09-10T11:45:48.406Z,26.30
2023-09-10T11:48:15.088Z,26.30
2023-09-10T11:50:41.700Z,26.30
2023-09-10T11:53:08.245Z,26.40
2023-09-10T11:55:34.816Z,26.40
2023-09-10T11:58:01.351Z,26.40
2023-09-10T12:00:27.891Z,26.40
2023-09-10T12:02:55.625Z,26.40
2023-09-10T12:05:22.182Z,26.40
2023-09-10T12:07:48.752Z,26.40
2023-09-10T12:10:15.271Z,26.40
2023-09-10T12:12:41.785Z,26.40
2023-09-10T12:15:08.313Z,26.40
2023-09-10T12:17:34.860Z,26.40
2023-09-10T12:20:01.414Z,26.40
2023-09-10T12:22:27.938Z,26.50
2023-09-10T12:24:54.551Z,26.40
2023-09-10T12:27:24.133Z,26.50
2023-09-10T12:29:50.651Z,26.40
2023-09-10T12:32:17.214Z,26.50
2023-09-10T12:34:43.768Z,26.50
2023-09-10T12:37:10.305Z,26.50
2023-09-10T12:39:36.825Z,26.50
2023-09-10T12:42:03.538Z,26.50
2023-09-10T12:44:30.227Z,26.50
2023-09-10T12:46:56.910Z,26.50
2023-09-10T12:49:23.472Z,26.50
2023-09-10T12:51:49.950Z,26.50
2023-09-10T12:54:16.441Z,26.50
2023-09-10T12:56:42.952Z,26.50
2023-09-10T12:59:09.535Z,26.50
2023-09-10T13:01:36.102Z,26.50
2023-09-10T13:04:02.800Z,26.60
2023-09-10T13:06:29.373Z,26.60
2023-09-10T13:08:55.875Z,26.60
2023-09-10T13:11:22.452Z,26.60
2023-09-10T13:13:49.069Z,26.60
2023-09-10T13:16:15.581Z,26.60
2023-09-10T13:18:49.524Z,26.50
2023-09-10T13:21:16.094Z,26.60
2023-09-10T13:23:42.914Z,26.60
2023-09-10T13:26:09.848Z,26.60
2023-09-10T13:28:36.390Z,26.60
2023-09-10T13:31:02.944Z,26.60
2023-09-10T13:33:29.474Z,26.60
2023-09-10T13:35:55.991Z,26.70
2023-09-10T13:38:23.963Z,26.70
2023-09-10T13:40:51.133Z,26.60
2023-09-10T13:43:17.656Z,26.70
2023-09-10T13:45:46.615Z,26.70
2023-09-10T13:48:19.754Z,26.70
2023-09-10T13:50:46.346Z,26.70
2023-09-10T13:53:13.693Z,26.70
2023-09-10T13:55:40.243Z,26.70
2023-09-10T13:58:06.755Z,26.70
2023-09-10T14:00:33.261Z,26.70
2023-09-10T14:02:59.804Z,26.70
2023-09-10T14:05:26.678Z,26.70
2023-09-10T14:08:01.849Z,26.70
2023-09-10T14:13:08.736Z,26.70
2023-09-10T14:15:35.300Z,26.80
2023-09-10T14:18:01.870Z,26.80
2023-09-10T14:20:28.466Z,26.80
2023-09-10T14:22:55.758Z,26.80
2023-09-10T14:25:22.299Z,26.80
2023-09-10T14:27:52.990Z,26.80
2023-09-10T14:30:19.830Z,26.80
2023-09-10T14:32:46.451Z,26.80
2023-09-10T14:35:13.063Z,26.90
2023-09-10T14:37:39.662Z,26.90
2023-09-10T14:40:06.197Z,26.90
2023-09-10T14:42:32.759Z,26.90
2023-09-10T14:44:59.286Z,26.90
2023-09-10T14:47:25.947Z,26.90
2023-09-10T14:49:54.093Z,27.00
2023-09-10T14:52:20.929Z,26.90
2023-09-10T14:54:47.478Z,26.90
2023-09-10T14:57:14.140Z,26.90
2023-09-10T14:59:40.812Z,27.00
2023-09-10T15:02:07.410Z,27.00
2023-09-10T15:04:33.952Z,27.00
2023-09-10T15:07:00.667Z,27.00
2023-09-10T15:09:27.458Z,26.90
2023-09-10T15:11:54.034Z,27.00
2023-09-10T15:14:20.677Z,27.00
2023-09-10T15:16:47.260Z,27.00
2023-09-10T15:19:13.770Z,27.00
2023-09-10T15:21:40.322Z,27.00
2023-09-10T15:24:06.852Z,27.00
2023-09-10T15:26:33.492Z,27.00
2023-09-10T15:29:00.077Z,27.00
2023-09-10T15:31:26.730Z,27.00
2023-09-10T15:33:53.314Z,27.00
2023-09-10T15:36:19.826Z,27.00
2023-09-10T15:38:46.350Z,27.10
2023-09-10T15:41:12.967Z,27.00
2023-09-10T15:43:39.714Z,27.10
2023-09-10T15:46:06.541Z,27.10
2023-09-10T15:48:33.089Z,27.10
2023-09-10T15:51:01.775Z,27.10
2023-09-10T15:53:28.365Z,27.10
2023-09-10T15:55:54.934Z,27.10
2023-09-10T15:58:21.457Z,27.20
2023-09-10T16:00:48.020Z,27.10
2023-09-10T16:03:14.661Z,27.00
2023-09-10T16:05:41.352Z,27.10
2023-09-10T16:08:08.022Z,27.10
2023-09-10T16:10:34.686Z,27.10
2023-09-10T16:13:01.190Z,27.10
2023-09-10T16:15:27.684Z,27.10
2023-09-10T16:17:54.322Z,27.10
2023-09-10T16:20:20.957Z,27.10
2023-09-10T16:22:47.451Z,27.00
2023-09-10T16:25:14.011Z,27.10
2023-09-10T16:27:42.681Z,27.10
2023-09-10T16:30:09.172Z,27.10
2023-09-10T16:32:35.754Z,27.10
2023-09-10T16:35:02.472Z,27.10
2023-09-10T16:37:29.060Z,27.10
2023-09-10T16:39:55.577Z,27.10
2023-09-10T16:42:22.102Z,27.10
2023-09-10T16:44:48.604Z,27.10
2023-09-10T16:47:15.153Z,27.10
2023-09-10T16:49:41.691Z,27.10
2023-09-10T16:52:08.229Z,27.10
2023-09-10T16:54:34.761Z,27.10
2023-09-10T16:57:01.875Z,26.90
2023-09-10T16:59:31.907Z,27.10
2023-09-10T17:01:58.682Z,27.10
2023-09-10T17:04:25.231Z,27.10
2023-09-10T17:06:51.772Z,27.10
2023-09-10T17:09:18.286Z,27.10
2023-09-10T17:11:44.871Z,27.10
2023-09-10T17:14:11.482Z,27.10
2023-09-10T17:19:24.265Z,27.10
2023-09-10T17:21:50.950Z,27.10
2023-09-10T17:24:17.444Z,27.00
2023-09-10T17:26:44.006Z,27.00
2023-09-10T17:29:10.620Z,27.00
2023-09-10T17:31:37.206Z,27.00
2023-09-10T17:34:04.819Z,27.00
2023-09-10T17:39:11.733Z,27.00
2023-09-10T17:41:40.686Z,27.00
2023-09-10T17:44:07.272Z,27.10
2023-09-10T17:46:38.127Z,27.00
2023-09-10T17:49:04.660Z,27.00
2023-09-10T17:51:31.188Z,27.00
2023-09-10T17:53:57.748Z,27.00
2023-09-10T17:56:24.341Z,27.00
2023-09-10T17:58:50.877Z,27.00
2023-09-10T18:01:17.430Z,27.00
2023-09-10T18:03:46.422Z,27.00
2023-09-10T18:06:13.528Z,27.00
2023-09-10T18:08:42.346Z,27.00
2023-09-10T18:11:14.222Z,27.00
2023-09-10T18:13:42.547Z,27.00
2023-09-10T18:16:09.657Z,27.00
2023-09-10T18:18:36.252Z,27.00
2023-09-10T18:21:02.803Z,27.00
2023-09-10T18:23:29.384Z,27.00
2023-09-10T18:25:55.918Z,27.00
2023-09-10T18:28:22.450Z,26.90
2023-09-10T18:30:49.093Z,26.90
2023-09-10T18:33:15.747Z,26.90
2023-09-10T18:35:45.917Z,26.90
2023-09-10T18:38:12.536Z,26.90
2023-09-10T18:40:39.090Z,26.90
2023-09-10T18:43:05.709Z,26.90
2023-09-10T18:45:32.468Z,26.90
2023-09-10T18:47:59.102Z,26.90
2023-09-10T18:50:25.686Z,26.90
2023-09-10T18:52:52.338Z,26.90
2023-09-10T18:55:18.845Z,26.90
2023-09-10T18:57:45.468Z,26.90
2023-09-10T19:00:12.044Z,26.90
2023-09-10T19:02:38.802Z,26.90
2023-09-10T19:05:07.972Z,26.90
2023-09-10T19:07:34.571Z,26.90
2023-09-10T19:10:01.118Z,26.90
2023-09-10T19:12:28.781Z,26.80
2023-09-10T19:14:55.287Z,26.80
2023-09-10T19:20:02.174Z,26.80
2023-09-10T19:22:28.689Z,26.90
2023-09-10T19:24:55.217Z,26.80
2023-09-10T19:27:21.729Z,26.80
2023-09-10T19:29:48.271Z,26.80
2023-09-10T19:32:14.813Z,26.80
2023-09-10T19:34:41.392Z,26.80
2023-09-10T19:37:07.917Z,26.80
2023-09-10T19:39:34.436Z,26.80
2023-09-10T19:42:00.963Z,26.80
2023-09-10T19:44:27.547Z,26.70
2023-09-10T19:46:54.090Z,26.80
2023-09-10T19:49:20.638Z,26.70
2023-09-10T19:51:47.162Z,26.70
2023-09-10T19:54:13.701Z,26.80
2023-09-10T19:56:40.237Z,26.70
2023-09-10T19:59:06.864Z,26.70
2023-09-10T20:01:33.488Z,26.70
2023-09-10T20:04:00.018Z,26.70
2023-09-10T20:06:26.728Z,26.70
2023-09-10T20:08:53.324Z,26.70
2023-09-10T20:11:19.859Z,26.70
2023-09-10T20:13:46.400Z,26.70
2023-09-10T20:16:13.075Z,26.60
2023-09-10T20:18:39.676Z,26.60
2023-09-10T20:21:06.338Z,26.60
2023-09-10T20:23:38.242Z,26.70
2023-09-10T20:26:05.136Z,26.60
2023-09-10T20:28:31.628Z,26.60
2023-09-10T20:30:58.182Z,26.60
2023-09-10T20:33:24.830Z,26.60
2023-09-10T20:35:51.542Z,26.60
2023-09-10T20:38:20.128Z,26.60
2023-09-10T20:40:46.649Z,26.60
2023-09-10T20:43:13.139Z,26.60
2023-09-10T20:45:39.660Z,26.60
2023-09-10T20:48:06.219Z,26.50
2023-09-10T20:50:32.799Z,26.50
2023-09-10T20:52:59.320Z,26.50
2023-09-10T20:55:28.844Z,26.50
2023-09-10T20:57:55.394Z,26.50
2023-09-10T21:00:21.968Z,26.50
2023-09-10T21:02:48.671Z,26.50
2023-09-10T21:05:15.498Z,26.50
2023-09-10T21:07:44.349Z,26.50
2023-09-10T21:10:11.224Z,26.40
2023-09-10T21:12:37.753Z,26.50
2023-09-10T21:15:04.289Z,26.40
2023-09-10T21:17:30.986Z,26.40
2023-09-10T21:19:57.564Z,26.40
2023-09-10T21:22:24.108Z,26.40
2023-09-10T21:27:22.091Z,26.40
2023-09-10T21:29:48.666Z,26.40
2023-09-10T21:32:15.196Z,26.40
2023-09-10T21:34:41.722Z,26.40
2023-09-10T21:37:08.240Z,26.40
2023-09-10T21:39:34.770Z,26.40
2023-09-10T21:42:01.299Z,26.40
2023-09-10T21:44:27.869Z,26.40
2023-09-10T21:46:54.531Z,26.30
2023-09-10T21:49:21.082Z,26.40
2023-09-10T21:51:47.596Z,26.50
2023-09-10T21:54:14.119Z,26.40
2023-09-10T21:56:40.658Z,26.40
2023-09-10T21:59:07.179Z,26.40
2023-09-10T22:01:33.757Z,26.40
2023-09-10T22:04:00.471Z,26.30
2023-09-10T22:06:27.019Z,26.40
2023-09-10T22:08:53.602Z,26.30
2023-09-10T22:11:20.166Z,26.30
2023-09-10T22:13:46.723Z,26.40
2023-09-10T22:16:13.277Z,26.30
2023-09-10T22:21:20.192Z,26.30
2023-09-10T22:23:46.852Z,26.30
2023-09-10T22:26:13.412Z,26.20
2023-09-10T22:28:40.055Z,26.30
2023-09-10T22:31:06.745Z,26.30
2023-09-10T22:33:33.350Z,26.30
2023-09-10T22:36:02.724Z,26.30
2023-09-10T22:38:35.935Z,26.30
2023-09-10T22:41:02.509Z,26.30
2023-09-10T22:43:29.010Z,26.30
2023-09-10T22:45:55.602Z,26.30
2023-09-10T22:48:22.133Z,26.50
2023-09-10T22:50:48.680Z,26.30
2023-09-10T22:53:16.439Z,26.30
2023-09-10T22:55:42.997Z,26.30
2023-09-10T22:58:09.509Z,26.30
2023-09-10T23:00:36.053Z,26.30
2023-09-10T23:03:02.819Z,26.30
2023-09-10T23:05:29.391Z,26.30
2023-09-10T23:07:55.982Z,26.30
2023-09-10T23:10:22.577Z,26.30
2023-09-10T23:12:49.103Z,26.20
2023-09-10T23:15:15.682Z,26.30
2023-09-10T23:17:43.481Z,26.20
2023-09-10T23:20:11.126Z,26.30
2023-09-10T23:22:37.645Z,26.00
2023-09-10T23:25:04.159Z,26.20
2023-09-10T23:27:30.673Z,26.20
2023-09-10T23:29:57.205Z,26.20
2023-09-10T23:32:23.832Z,26.20
2023-09-10T23:34:50.389Z,26.20
2023-09-10T23:37:16.931Z,26.20
2023-09-10T23:39:43.451Z,26.20
2023-09-10T23:44:50.402Z,26.20
2023-09-10T23:47:16.980Z,26.20
2023-09-10T23:49:44.202Z,26.20
2023-09-10T23:52:10.754Z,26.20
2023-09-10T23:54:37.351Z,26.20
2023-09-10T23:57:03.883Z,26.20
2023-09-10T23:59:30.931Z,26.10
